N3044K KAVX-KSNA
Flight info
| Callsign | N3044K |
|---|---|
| Flight time | N/A |
| Altitude | VFR |
| Route | SLI PDZ |
| Aircraft | PA24/L-SDGRY/S |
Departure
| Time | 2026-04-12 17:29 |
|---|---|
| Airport | Catalina Airport (KAVX) |
Arrival
| Time | N/A |
|---|---|
| Airport | John Wayne Orange County International Airport (KSNA) |
| Time | Latitude | Longitude | Altitude | Speed | Heading |
|---|---|---|---|---|---|
| 2026-04-12 17:24 | 33.40333 | -118.41674 | 1622 ft | 0 kts | 221° |
| 2026-04-12 17:25 | 33.40330 | -118.41677 | 1624 ft | 4 kts | 234° |
| 2026-04-12 17:25 | 33.40363 | -118.41674 | 1619 ft | 14 kts | 358° |
| 2026-04-12 17:25 | 33.40383 | -118.41708 | 1619 ft | 0 kts | 232° |
| 2026-04-12 17:25 | 33.40380 | -118.41713 | 1621 ft | 5 kts | 232° |
| 2026-04-12 17:26 | 33.40320 | -118.41813 | 1627 ft | 22 kts | 237° |
| 2026-04-12 17:26 | 33.40285 | -118.41878 | 1630 ft | 1 kts | 238° |
| 2026-04-12 17:26 | 33.40271 | -118.41898 | 1633 ft | 6 kts | 227° |
| 2026-04-12 17:26 | 33.40240 | -118.41950 | 1639 ft | 8 kts | 237° |
| 2026-04-12 17:27 | 33.40233 | -118.41963 | 1644 ft | 0 kts | 252° |
| 2026-04-12 17:27 | 33.40232 | -118.41979 | 1646 ft | 5 kts | 272° |
| 2026-04-12 17:28 | 33.40260 | -118.41985 | 1647 ft | 1 kts | 54° |
| 2026-04-12 17:28 | 33.40398 | -118.41755 | 1621 ft | 73 kts | 53° |
| 2026-04-12 17:28 | 33.40752 | -118.41153 | 1705 ft | 95 kts | 48° |
| 2026-04-12 17:28 | 33.41165 | -118.40518 | 1923 ft | 99 kts | 43° |
| 2026-04-12 17:29 | 33.41645 | -118.39879 | 2112 ft | 105 kts | 41° |
| 2026-04-12 17:29 | 33.42159 | -118.39205 | 2292 ft | 114 kts | 37° |
| 2026-04-12 17:29 | 33.42774 | -118.38643 | 2591 ft | 109 kts | 24° |
| 2026-04-12 17:29 | 33.43455 | -118.38219 | 2811 ft | 112 kts | 22° |
| 2026-04-12 17:30 | 33.44175 | -118.37819 | 2998 ft | 117 kts | 19° |
| 2026-04-12 17:30 | 33.44886 | -118.37381 | 3233 ft | 117 kts | 30° |
| 2026-04-12 17:30 | 33.45480 | -118.36697 | 3511 ft | 119 kts | 37° |
| 2026-04-12 17:30 | 33.46112 | -118.36018 | 3688 ft | 124 kts | 37° |
| 2026-04-12 17:31 | 33.46785 | -118.35373 | 3992 ft | 121 kts | 31° |
| 2026-04-12 17:31 | 33.47489 | -118.34825 | 4278 ft | 123 kts | 22° |
| 2026-04-12 17:31 | 33.48216 | -118.34272 | 4604 ft | 123 kts | 34° |
| 2026-04-12 17:31 | 33.48829 | -118.33502 | 4890 ft | 128 kts | 44° |
| 2026-04-12 17:32 | 33.49423 | -118.32751 | 5246 ft | 126 kts | 36° |
| 2026-04-12 17:32 | 33.50183 | -118.32166 | 5457 ft | 131 kts | 32° |
| 2026-04-12 17:32 | 33.50916 | -118.31552 | 5825 ft | 128 kts | 30° |
| 2026-04-12 17:32 | 33.51676 | -118.30834 | 5816 ft | 147 kts | 37° |
| 2026-04-12 17:33 | 33.52524 | -118.29986 | 5564 ft | 173 kts | 39° |
| 2026-04-12 17:33 | 33.53408 | -118.29010 | 5624 ft | 165 kts | 43° |
| 2026-04-12 17:33 | 33.54208 | -118.28037 | 5703 ft | 160 kts | 43° |
| 2026-04-12 17:33 | 33.54903 | -118.27207 | 6197 ft | 133 kts | 40° |
| 2026-04-12 17:34 | 33.55724 | -118.26342 | 5822 ft | 163 kts | 40° |
| 2026-04-12 17:34 | 33.56569 | -118.25514 | 5972 ft | 151 kts | 37° |
| 2026-04-12 17:34 | 33.57425 | -118.24677 | 5674 ft | 168 kts | 32° |
| 2026-04-12 17:34 | 33.58309 | -118.23806 | 5716 ft | 154 kts | 43° |
| 2026-04-12 17:35 | 33.59006 | -118.22938 | 5932 ft | 139 kts | 43° |
| 2026-04-12 17:35 | 33.59704 | -118.22098 | 5858 ft | 148 kts | 41° |
| 2026-04-12 17:35 | 33.60490 | -118.21242 | 5763 ft | 152 kts | 38° |
| 2026-04-12 17:35 | 33.61324 | -118.20439 | 5684 ft | 155 kts | 34° |
| 2026-04-12 17:36 | 33.62219 | -118.19750 | 5665 ft | 153 kts | 25° |
| 2026-04-12 17:36 | 33.63188 | -118.19195 | 5605 ft | 154 kts | 16° |
| 2026-04-12 17:36 | 33.64169 | -118.18723 | 5545 ft | 153 kts | 21° |
| 2026-04-12 17:36 | 33.65121 | -118.18134 | 5499 ft | 152 kts | 25° |
| 2026-04-12 17:37 | 33.65989 | -118.17431 | 5454 ft | 153 kts | 40° |
| 2026-04-12 17:37 | 33.66561 | -118.16322 | 5447 ft | 149 kts | 62° |
| 2026-04-12 17:37 | 33.66998 | -118.15168 | 5321 ft | 159 kts | 70° |
| 2026-04-12 17:37 | 33.67416 | -118.13940 | 5349 ft | 155 kts | 63° |
| 2026-04-12 17:38 | 33.67898 | -118.12792 | 5257 ft | 156 kts | 48° |
| 2026-04-12 17:38 | 33.68752 | -118.11890 | 5070 ft | 161 kts | 37° |
| 2026-04-12 17:38 | 33.69594 | -118.11165 | 5262 ft | 143 kts | 25° |
| 2026-04-12 17:38 | 33.70536 | -118.10740 | 5156 ft | 145 kts | 8° |
| 2026-04-12 17:39 | 33.71518 | -118.10631 | 5189 ft | 134 kts | 351° |
| 2026-04-12 17:39 | 33.72385 | -118.10673 | 5317 ft | 122 kts | 352° |
| 2026-04-12 17:39 | 33.73246 | -118.10586 | 5188 ft | 132 kts | 4° |
| 2026-04-12 17:39 | 33.74138 | -118.10273 | 5146 ft | 131 kts | 19° |
| 2026-04-12 17:40 | 33.74759 | -118.09517 | 5160 ft | 124 kts | 65° |
| 2026-04-12 17:40 | 33.74915 | -118.08516 | 5083 ft | 126 kts | 88° |
| 2026-04-12 17:40 | 33.74971 | -118.07556 | 5242 ft | 109 kts | 91° |
| 2026-04-12 17:40 | 33.75025 | -118.06694 | 5333 ft | 99 kts | 91° |
| 2026-04-12 17:41 | 33.75075 | -118.05846 | 5321 ft | 96 kts | 90° |
| 2026-04-12 17:41 | 33.75131 | -118.05048 | 5334 ft | 93 kts | 91° |
| 2026-04-12 17:41 | 33.75283 | -118.04180 | 4944 ft | 126 kts | 62° |
| 2026-04-12 17:41 | 33.75861 | -118.03547 | 5153 ft | 95 kts | 21° |
| 2026-04-12 17:42 | 33.76570 | -118.03259 | 4880 ft | 114 kts | 13° |
| 2026-04-12 17:42 | 33.77186 | -118.02708 | 4735 ft | 113 kts | 50° |
| 2026-04-12 17:42 | 33.77723 | -118.01953 | 4548 ft | 119 kts | 43° |
| 2026-04-12 17:43 | 33.78865 | -118.00611 | 4182 ft | 123 kts | 47° |
| 2026-04-12 17:43 | 33.79339 | -117.99856 | 4162 ft | 108 kts | 55° |
| 2026-04-12 17:43 | 33.79722 | -117.99098 | 4090 ft | 95 kts | 58° |
| 2026-04-12 17:43 | 33.80026 | -117.98452 | 4008 ft | 88 kts | 64° |
| 2026-04-12 17:44 | 33.80304 | -117.97781 | 3779 ft | 94 kts | 63° |
| 2026-04-12 17:44 | 33.80772 | -117.96431 | 3536 ft | 80 kts | 70° |
| 2026-04-12 17:44 | 33.80954 | -117.95777 | 3384 ft | 80 kts | 77° |
| 2026-04-12 17:45 | 33.81086 | -117.95116 | 3228 ft | 85 kts | 82° |
| 2026-04-12 17:45 | 33.81189 | -117.94352 | 3062 ft | 97 kts | 85° |
| 2026-04-12 17:45 | 33.81271 | -117.93475 | 2966 ft | 109 kts | 86° |
| 2026-04-12 17:45 | 33.81405 | -117.92571 | 3199 ft | 110 kts | 81° |
| 2026-04-12 17:46 | 33.81558 | -117.91718 | 3518 ft | 99 kts | 77° |
| 2026-04-12 17:46 | 33.81795 | -117.90912 | 3695 ft | 109 kts | 69° |
| 2026-04-12 17:46 | 33.82094 | -117.90083 | 3996 ft | 106 kts | 66° |
| 2026-04-12 17:46 | 33.82425 | -117.89291 | 4266 ft | 108 kts | 63° |
| 2026-04-12 17:47 | 33.82759 | -117.88483 | 4533 ft | 108 kts | 67° |
| 2026-04-12 17:47 | 33.83037 | -117.87606 | 4712 ft | 117 kts | 70° |
| 2026-04-12 17:47 | 33.83405 | -117.86758 | 4977 ft | 116 kts | 60° |
| 2026-04-12 17:47 | 33.83817 | -117.85924 | 5214 ft | 120 kts | 66° |
| 2026-04-12 17:48 | 33.83943 | -117.85545 | 5303 ft | 121 kts | 71° |
| 2026-04-12 17:48 | 33.84104 | -117.84970 | 5592 ft | 133 kts | 74° |
| 2026-04-12 17:48 | 33.84420 | -117.83871 | 5634 ft | 148 kts | 75° |
| 2026-04-12 17:48 | 33.84743 | -117.82653 | 5649 ft | 150 kts | 75° |
| 2026-04-12 17:49 | 33.85012 | -117.81440 | 5725 ft | 158 kts | 81° |
| 2026-04-12 17:49 | 33.85215 | -117.80138 | 5845 ft | 152 kts | 84° |
| 2026-04-12 17:49 | 33.85379 | -117.78760 | 5588 ft | 166 kts | 85° |
| 2026-04-12 17:49 | 33.85611 | -117.77488 | 5869 ft | 145 kts | 75° |
| 2026-04-12 17:50 | 33.85928 | -117.76266 | 5838 ft | 156 kts | 76° |
| 2026-04-12 17:50 | 33.86196 | -117.74981 | 5833 ft | 159 kts | 81° |
| 2026-04-12 17:50 | 33.86430 | -117.73618 | 5551 ft | 175 kts | 81° |
| 2026-04-12 17:50 | 33.86739 | -117.72214 | 5536 ft | 171 kts | 79° |
| 2026-04-12 17:51 | 33.86991 | -117.70843 | 5623 ft | 164 kts | 81° |
| 2026-04-12 17:51 | 33.87289 | -117.69508 | 5611 ft | 166 kts | 77° |
| 2026-04-12 17:51 | 33.87577 | -117.68243 | 5932 ft | 147 kts | 94° |
| 2026-04-12 17:51 | 33.88150 | -117.67262 | 5667 ft | 168 kts | 20° |
| 2026-04-12 17:52 | 33.89263 | -117.67388 | 5634 ft | 161 kts | 319° |
| 2026-04-12 17:52 | 33.89574 | -117.68594 | 5264 ft | 160 kts | 247° |
| 2026-04-12 17:52 | 33.88873 | -117.69584 | 5203 ft | 143 kts | 223° |
| 2026-04-12 17:52 | 33.88376 | -117.70089 | 5269 ft | 136 kts | 218° |
| 2026-04-12 17:53 | 33.87677 | -117.70778 | 5409 ft | 120 kts | 220° |
| 2026-04-12 17:53 | 33.87035 | -117.71421 | 5467 ft | 123 kts | 221° |
| 2026-04-12 17:53 | 33.86377 | -117.72127 | 5425 ft | 128 kts | 223° |
| 2026-04-12 17:53 | 33.85747 | -117.72883 | 5478 ft | 124 kts | 228° |
| 2026-04-12 17:54 | 33.85172 | -117.73585 | 5540 ft | 124 kts | 223° |
| 2026-04-12 17:54 | 33.84535 | -117.74251 | 5570 ft | 123 kts | 224° |
| 2026-04-12 17:54 | 33.83887 | -117.74984 | 5589 ft | 123 kts | 224° |
| 2026-04-12 17:54 | 33.83319 | -117.75630 | 5824 ft | 114 kts | 231° |
| 2026-04-12 17:55 | 33.82895 | -117.76485 | 5756 ft | 125 kts | 230° |
| 2026-04-12 17:55 | 33.82207 | -117.77226 | 5513 ft | 143 kts | 221° |
| 2026-04-12 17:55 | 33.81483 | -117.77963 | 5639 ft | 131 kts | 222° |
| 2026-04-12 17:55 | 33.80788 | -117.78696 | 5570 ft | 136 kts | 223° |
| 2026-04-12 17:56 | 33.80069 | -117.79447 | 5581 ft | 131 kts | 222° |
| 2026-04-12 17:56 | 33.79405 | -117.80127 | 5653 ft | 127 kts | 223° |
| 2026-04-12 17:56 | 33.78727 | -117.80840 | 5627 ft | 129 kts | 223° |
| 2026-04-12 17:56 | 33.78052 | -117.81549 | 5491 ft | 142 kts | 219° |
| 2026-04-12 17:57 | 33.77206 | -117.82305 | 4386 ft | 184 kts | 217° |
| 2026-04-12 17:57 | 33.76384 | -117.83160 | 4415 ft | 126 kts | 202° |
| 2026-04-12 17:57 | 33.75452 | -117.83227 | 3602 ft | 155 kts | 166° |
| 2026-04-12 17:57 | 33.74481 | -117.82442 | 2698 ft | 173 kts | 128° |
| 2026-04-12 17:58 | 33.74221 | -117.81035 | 1997 ft | 177 kts | 81° |
| 2026-04-12 17:58 | 33.74892 | -117.79930 | 1748 ft | 163 kts | 33° |
| 2026-04-12 17:58 | 33.75940 | -117.79923 | 1449 ft | 146 kts | 326° |
| 2026-04-12 17:58 | 33.76500 | -117.80831 | 1288 ft | 131 kts | 277° |